sensor_id;sensor_type;location;lat;lon;timestamp;pressure;altitude;pressure_sealevel;temperature;humidity
49178;BME280;35016;55.674;37.468;2023-01-26T04:16:36;99570.84;;;-1.83;72.61
49178;BME280;35016;55.674;37.468;2023-01-26T04:20:38;99587.13;;;-1.86;72.56
49178;BME280;35016;55.674;37.468;2023-01-26T04:27:54;99581.81;;;-1.86;72.56
49178;BME280;35016;55.674;37.468;2023-01-26T04:31:40;99572.66;;;-1.83;72.42
49178;BME280;35016;55.674;37.468;2023-01-26T04:37:23;99579.81;;;-1.84;72.44
49178;BME280;35016;55.674;37.468;2023-01-26T04:41:14;99575.31;;;-1.83;72.61
49178;BME280;35016;55.674;37.468;2023-01-26T04:43:45;99584.31;;;-1.84;72.43
49178;BME280;35016;55.674;37.468;2023-01-26T04:46:16;99577.16;;;-1.84;72.51
49178;BME280;35016;55.674;37.468;2023-01-26T04:48:45;99577.97;;;-1.83;72.46
49178;BME280;35016;55.674;37.468;2023-01-26T04:51:29;99568.00;;;-1.81;72.57
49178;BME280;35016;55.674;37.468;2023-01-26T04:54:43;99580.47;;;-1.82;72.33
49178;BME280;35016;55.674;37.468;2023-01-26T04:58:23;99579.81;;;-1.84;72.49
49178;BME280;35016;55.674;37.468;2023-01-26T05:01:43;99583.28;;;-1.83;72.39
49178;BME280;35016;55.674;37.468;2023-01-26T05:08:30;99569.06;;;-1.91;72.60
49178;BME280;35016;55.674;37.468;2023-01-26T05:12:29;99576.03;;;-1.90;72.60
49178;BME280;35016;55.674;37.468;2023-01-26T05:16:07;99567.59;;;-1.93;72.64
49178;BME280;35016;55.674;37.468;2023-01-26T05:19:56;99570.25;;;-1.93;72.46
49178;BME280;35016;55.674;37.468;2023-01-26T05:32:48;99558.81;;;-1.94;72.47
49178;BME280;35016;55.674;37.468;2023-01-26T06:50:24;99531.69;;;-1.51;72.14
49178;BME280;35016;55.674;37.468;2023-01-26T07:06:47;99529.13;;;-1.45;72.41
49178;BME280;35016;55.674;37.468;2023-01-26T07:19:03;99530.72;;;-1.36;72.13
49178;BME280;35016;55.674;37.468;2023-01-26T07:52:50;99526.13;;;-0.98;72.19
49178;BME280;35016;55.674;37.468;2023-01-26T08:11:39;99520.69;;;-0.89;72.11
49178;BME280;35016;55.674;37.468;2023-01-26T09:55:07;99454.88;;;-0.23;71.65
49178;BME280;35016;55.674;37.468;2023-01-26T09:58:03;99461.03;;;-0.23;71.57
49178;BME280;35016;55.674;37.468;2023-01-26T10:10:00;99461.34;;;-0.33;71.67
49178;BME280;35016;55.674;37.468;2023-01-26T10:13:36;99470.44;;;-0.27;71.59
49178;BME280;35016;55.674;37.468;2023-01-26T10:16:05;99464.91;;;-0.25;71.74
49178;BME280;35016;55.674;37.468;2023-01-26T10:18:35;99456.44;;;-0.29;71.78
49178;BME280;35016;55.674;37.468;2023-01-26T10:24:46;99459.59;;;-0.25;71.29
49178;BME280;35016;55.674;37.468;2023-01-26T10:27:26;99447.91;;;-0.24;71.77
49178;BME280;35016;55.674;37.468;2023-01-26T10:29:55;99457.34;;;-0.22;71.72
49178;BME280;35016;55.674;37.468;2023-01-26T10:32:30;99452.84;;;-0.21;71.62
49178;BME280;35016;55.674;37.468;2023-01-26T10:35:21;99450.81;;;-0.19;71.86
49178;BME280;35016;55.674;37.468;2023-01-26T10:44:42;99444.22;;;-0.23;71.28
49178;BME280;35016;55.674;37.468;2023-01-26T10:47:16;99439.34;;;-0.20;71.76
49178;BME280;35016;55.674;37.468;2023-01-26T10:49:47;99438.56;;;-0.14;71.70
49178;BME280;35016;55.674;37.468;2023-01-26T10:54:45;99423.59;;;-0.15;71.69
49178;BME280;35016;55.674;37.468;2023-01-26T10:57:13;99421.31;;;-0.18;71.37
49178;BME280;35016;55.674;37.468;2023-01-26T11:00:27;99415.34;;;-0.20;71.49
49178;BME280;35016;55.674;37.468;2023-01-26T11:03:20;99421.69;;;-0.21;71.61
49178;BME280;35016;55.674;37.468;2023-01-26T11:06:05;99413.28;;;-0.24;71.70
49178;BME280;35016;55.674;37.468;2023-01-26T11:08:36;99397.66;;;-0.27;71.79
49178;BME280;35016;55.674;37.468;2023-01-26T11:11:04;99416.31;;;-0.27;71.63
49178;BME280;35016;55.674;37.468;2023-01-26T11:13:33;99401.78;;;-0.25;71.79
49178;BME280;35016;55.674;37.468;2023-01-26T11:16:03;99400.56;;;-0.22;71.65
49178;BME280;35016;55.674;37.468;2023-01-26T11:24:07;99396.28;;;-0.23;71.65
49178;BME280;35016;55.674;37.468;2023-01-26T11:26:55;99389.28;;;-0.24;71.47
49178;BME280;35016;55.674;37.468;2023-01-26T11:30:31;99387.84;;;-0.27;71.56
49178;BME280;35016;55.674;37.468;2023-01-26T11:44:57;99390.69;;;-0.28;71.67
49178;BME280;35016;55.674;37.468;2023-01-26T12:05:57;99378.44;;;-0.23;71.80
49178;BME280;35016;55.674;37.468;2023-01-26T12:08:29;99383.56;;;-0.21;71.59
49178;BME280;35016;55.674;37.468;2023-01-26T12:11:05;99384.19;;;-0.19;71.41
49178;BME280;35016;55.674;37.468;2023-01-26T12:16:43;99381.16;;;-0.16;71.86
49178;BME280;35016;55.674;37.468;2023-01-26T12:19:27;99368.88;;;-0.11;71.69
49178;BME280;35016;55.674;37.468;2023-01-26T12:22:02;99371.16;;;-0.08;71.27
49178;BME280;35016;55.674;37.468;2023-01-26T12:24:39;99375.28;;;-0.05;71.70
49178;BME280;35016;55.674;37.468;2023-01-26T12:27:36;99380.22;;;-0.02;71.71
49178;BME280;35016;55.674;37.468;2023-01-26T12:33:09;99372.63;;;-0.05;71.66
49178;BME280;35016;55.674;37.468;2023-01-26T12:47:18;99369.91;;;-0.12;71.71
49178;BME280;35016;55.674;37.468;2023-01-26T12:50:03;99374.22;;;-0.11;71.75
49178;BME280;35016;55.674;37.468;2023-01-26T12:52:37;99366.66;;;-0.07;71.36
49178;BME280;35016;55.674;37.468;2023-01-26T13:07:38;99367.59;;;-0.21;71.47
49178;BME280;35016;55.674;37.468;2023-01-26T13:10:47;99368.41;;;-0.21;71.43
49178;BME280;35016;55.674;37.468;2023-01-26T13:13:52;99377.63;;;-0.23;71.58
49178;BME280;35016;55.674;37.468;2023-01-26T13:43:06;99373.69;;;-0.27;71.44
49178;BME280;35016;55.674;37.468;2023-01-26T13:48:47;99381.69;;;-0.27;71.40
49178;BME280;35016;55.674;37.468;2023-01-26T13:51:18;99385.81;;;-0.25;71.49
49178;BME280;35016;55.674;37.468;2023-01-26T13:57:05;99384.16;;;-0.26;71.49
49178;BME280;35016;55.674;37.468;2023-01-26T13:59:51;99384.50;;;-0.29;71.55
49178;BME280;35016;55.674;37.468;2023-01-26T14:02:46;99382.03;;;-0.31;71.58
49178;BME280;35016;55.674;37.468;2023-01-26T14:05:20;99384.72;;;-0.31;71.30
49178;BME280;35016;55.674;37.468;2023-01-26T14:07:49;99378.75;;;-0.33;71.29
49178;BME280;35016;55.674;37.468;2023-01-26T14:10:17;99379.75;;;-0.34;71.82
49178;BME280;35016;55.674;37.468;2023-01-26T14:12:49;99377.50;;;-0.37;71.22
49178;BME280;35016;55.674;37.468;2023-01-26T14:15:30;99368.66;;;-0.37;71.40
49178;BME280;35016;55.674;37.468;2023-01-26T14:18:02;99377.09;;;-0.34;71.60
49178;BME280;35016;55.674;37.468;2023-01-26T14:30:51;99380.19;;;-0.30;71.24
49178;BME280;35016;55.674;37.468;2023-01-26T14:33:20;99375.53;;;-0.28;71.46
49178;BME280;35016;55.674;37.468;2023-01-26T14:36:01;99376.16;;;-0.26;71.52
49178;BME280;35016;55.674;37.468;2023-01-26T14:38:42;99376.97;;;-0.25;71.49
49178;BME280;35016;55.674;37.468;2023-01-26T14:41:21;99379.03;;;-0.27;71.58
49178;BME280;35016;55.674;37.468;2023-01-26T14:43:52;99379.56;;;-0.32;71.42
49178;BME280;35016;55.674;37.468;2023-01-26T14:49:51;99376.53;;;-0.29;71.44
49178;BME280;35016;55.674;37.468;2023-01-26T14:52:27;99376.53;;;-0.29;71.65
49178;BME280;35016;55.674;37.468;2023-01-26T14:54:56;99375.53;;;-0.28;71.32
49178;BME280;35016;55.674;37.468;2023-01-26T14:57:28;99367.72;;;-0.29;71.53
49178;BME280;35016;55.674;37.468;2023-01-26T15:03:24;99354.56;;;-0.31;71.39
49178;BME280;35016;55.674;37.468;2023-01-26T15:10:56;99361.13;;;-0.34;71.63
49178;BME280;35016;55.674;37.468;2023-01-26T15:13:51;99369.09;;;-0.34;71.49
49178;BME280;35016;55.674;37.468;2023-01-26T15:16:24;99373.63;;;-0.34;71.50
49178;BME280;35016;55.674;37.468;2023-01-26T15:21:55;99366.00;;;-0.37;71.62
49178;BME280;35016;55.674;37.468;2023-01-26T15:24:36;99369.25;;;-0.42;71.50
49178;BME280;35016;55.674;37.468;2023-01-26T15:31:32;99365.53;;;-0.47;71.49
49178;BME280;35016;55.674;37.468;2023-01-26T15:38:35;99353.59;;;-0.51;71.71
49178;BME280;35016;55.674;37.468;2023-01-26T15:41:26;99357.09;;;-0.51;71.72
49178;BME280;35016;55.674;37.468;2023-01-26T15:44:11;99352.16;;;-0.54;71.64
49178;BME280;35016;55.674;37.468;2023-01-26T15:46:45;99360.53;;;-0.57;71.68
49178;BME280;35016;55.674;37.468;2023-01-26T15:50:21;99349.78;;;-0.64;71.68
49178;BME280;35016;55.674;37.468;2023-01-26T15:53:26;99353.84;;;-0.68;71.57
49178;BME280;35016;55.674;37.468;2023-01-26T15:56:19;99351.19;;;-0.68;71.62
49178;BME280;35016;55.674;37.468;2023-01-26T15:59:08;99342.56;;;-0.70;71.78
49178;BME280;35016;55.674;37.468;2023-01-26T16:06:35;99338.25;;;-0.71;71.58
49178;BME280;35016;55.674;37.468;2023-01-26T16:09:29;99335.78;;;-0.72;71.63
49178;BME280;35016;55.674;37.468;2023-01-26T16:16:29;99341.13;;;-0.72;71.58
49178;BME280;35016;55.674;37.468;2023-01-26T16:18:56;99344.78;;;-0.73;71.71
49178;BME280;35016;55.674;37.468;2023-01-26T16:21:32;99346.81;;;-0.75;71.73
49178;BME280;35016;55.674;37.468;2023-01-26T16:27:35;99343.72;;;-0.79;71.76
49178;BME280;35016;55.674;37.468;2023-01-26T16:30:04;99340.25;;;-0.79;71.89
49178;BME280;35016;55.674;37.468;2023-01-26T16:32:33;99349.88;;;-0.78;71.78
49178;BME280;35016;55.674;37.468;2023-01-26T16:35:17;99346.78;;;-0.82;71.58
49178;BME280;35016;55.674;37.468;2023-01-26T16:37:45;99349.16;;;-0.87;71.62
49178;BME280;35016;55.674;37.468;2023-01-26T16:40:16;99348.53;;;-0.89;71.70
49178;BME280;35016;55.674;37.468;2023-01-26T16:42:51;99353.66;;;-0.87;71.92
49178;BME280;35016;55.674;37.468;2023-01-26T16:45:25;99355.97;;;-0.84;71.86
49178;BME280;35016;55.674;37.468;2023-01-26T16:48:09;99352.81;;;-0.88;71.71
49178;BME280;35016;55.674;37.468;2023-01-26T16:51:23;99356.50;;;-0.89;71.78
49178;BME280;35016;55.674;37.468;2023-01-26T16:54:03;99350.16;;;-0.88;71.88
49178;BME280;35016;55.674;37.468;2023-01-26T17:01:03;99348.53;;;-0.89;71.77
49178;BME280;35016;55.674;37.468;2023-01-26T17:14:34;99354.66;;;-0.88;71.94
49178;BME280;35016;55.674;37.468;2023-01-26T17:17:02;99348.53;;;-0.89;72.10
49178;BME280;35016;55.674;37.468;2023-01-26T17:19:29;99347.06;;;-0.91;72.06
49178;BME280;35016;55.674;37.468;2023-01-26T17:22:09;99347.25;;;-0.93;72.06
49178;BME280;35016;55.674;37.468;2023-01-26T17:27:57;99350.28;;;-0.96;72.18
49178;BME280;35016;55.674;37.468;2023-01-26T17:30:33;99347.81;;;-0.98;72.10
49178;BME280;35016;55.674;37.468;2023-01-26T17:33:05;99351.69;;;-1.00;72.10
49178;BME280;35016;55.674;37.468;2023-01-26T17:35:33;99353.34;;;-0.99;71.93
49178;BME280;35016;55.674;37.468;2023-01-26T17:38:00;99358.66;;;-0.99;72.33
49178;BME280;35016;55.674;37.468;2023-01-26T17:40:27;99343.50;;;-0.99;72.01
49178;BME280;35016;55.674;37.468;2023-01-26T17:42:58;99353.72;;;-1.02;72.16
49178;BME280;35016;55.674;37.468;2023-01-26T17:45:25;99350.41;;;-1.04;72.12
49178;BME280;35016;55.674;37.468;2023-01-26T17:47:55;99352.63;;;-1.08;72.12
49178;BME280;35016;55.674;37.468;2023-01-26T17:50:26;99341.75;;;-1.13;72.20
49178;BME280;35016;55.674;37.468;2023-01-26T17:52:53;99346.06;;;-1.12;72.35
49178;BME280;35016;55.674;37.468;2023-01-26T17:59:45;99342.19;;;-1.09;72.29
49178;BME280;35016;55.674;37.468;2023-01-26T18:03:25;99345.47;;;-1.07;72.32
49178;BME280;35016;55.674;37.468;2023-01-26T18:19:17;99334.66;;;-1.06;72.09
49178;BME280;35016;55.674;37.468;2023-01-26T18:24:43;99326.22;;;-1.09;72.19
49178;BME280;35016;55.674;37.468;2023-01-26T18:27:19;99335.66;;;-1.07;72.31
49178;BME280;35016;55.674;37.468;2023-01-26T18:30:27;99325.66;;;-1.05;72.17
49178;BME280;35016;55.674;37.468;2023-01-26T18:39:42;99316.72;;;-0.97;72.19
49178;BME280;35016;55.674;37.468;2023-01-26T18:53:36;99314.13;;;-1.12;72.23
49178;BME280;35016;55.674;37.468;2023-01-26T18:56:16;99311.91;;;-1.08;72.25
49178;BME280;35016;55.674;37.468;2023-01-26T19:00:05;99324.56;;;-1.10;72.17
49178;BME280;35016;55.674;37.468;2023-01-26T19:02:36;99312.28;;;-1.11;72.21
49178;BME280;35016;55.674;37.468;2023-01-26T19:06:17;99296.13;;;-1.10;72.31
49178;BME280;35016;55.674;37.468;2023-01-26T19:08:59;99306.78;;;-1.10;72.22
49178;BME280;35016;55.674;37.468;2023-01-26T19:11:31;99309.44;;;-1.10;72.24
49178;BME280;35016;55.674;37.468;2023-01-26T19:14:18;99308.63;;;-1.10;72.18
49178;BME280;35016;55.674;37.468;2023-01-26T19:16:47;99303.66;;;-1.13;72.32
49178;BME280;35016;55.674;37.468;2023-01-26T19:19:15;99305.84;;;-1.17;72.15
49178;BME280;35016;55.674;37.468;2023-01-26T19:21:42;99308.34;;;-1.15;72.46
49178;BME280;35016;55.674;37.468;2023-01-26T19:24:10;99310.84;;;-1.14;72.30
49178;BME280;35016;55.674;37.468;2023-01-26T19:26:37;99313.69;;;-1.15;72.30
49178;BME280;35016;55.674;37.468;2023-01-26T19:29:07;99313.50;;;-1.14;72.17
49178;BME280;35016;55.674;37.468;2023-01-26T19:31:36;99310.63;;;-1.12;72.39
49178;BME280;35016;55.674;37.468;2023-01-26T19:34:05;99307.69;;;-1.17;72.34
49178;BME280;35016;55.674;37.468;2023-01-26T19:36:34;99295.41;;;-1.18;72.27
49178;BME280;35016;55.674;37.468;2023-01-26T19:39:05;99299.28;;;-1.21;72.27
49178;BME280;35016;55.674;37.468;2023-01-26T19:41:33;99295.59;;;-1.20;72.24
49178;BME280;35016;55.674;37.468;2023-01-26T19:44:05;99304.78;;;-1.22;72.27
49178;BME280;35016;55.674;37.468;2023-01-26T19:46:58;99297.81;;;-1.23;72.22
49178;BME280;35016;55.674;37.468;2023-01-26T19:49:25;99291.47;;;-1.22;72.39
49178;BME280;35016;55.674;37.468;2023-01-26T19:51:54;99298.44;;;-1.21;72.28
49178;BME280;35016;55.674;37.468;2023-01-26T19:54:22;99296.81;;;-1.22;72.36
49178;BME280;35016;55.674;37.468;2023-01-26T19:56:51;99294.34;;;-1.24;72.18
49178;BME280;35016;55.674;37.468;2023-01-26T19:59:19;99295.53;;;-1.27;71.96
49178;BME280;35016;55.674;37.468;2023-01-26T20:01:48;99297.38;;;-1.27;72.32
49178;BME280;35016;55.674;37.468;2023-01-26T20:04:15;99293.69;;;-1.26;72.36
49178;BME280;35016;55.674;37.468;2023-01-26T20:06:44;99290.84;;;-1.25;72.32
49178;BME280;35016;55.674;37.468;2023-01-26T20:09:14;99288.00;;;-1.23;72.32
49178;BME280;35016;55.674;37.468;2023-01-26T20:11:41;99297.00;;;-1.24;72.18
49178;BME280;35016;55.674;37.468;2023-01-26T20:14:09;99294.91;;;-1.29;72.27
49178;BME280;35016;55.674;37.468;2023-01-26T20:16:36;99291.59;;;-1.31;72.23
49178;BME280;35016;55.674;37.468;2023-01-26T20:19:06;99299.78;;;-1.32;72.26
49178;BME280;35016;55.674;37.468;2023-01-26T20:21:35;99303.63;;;-1.35;72.03
49178;BME280;35016;55.674;37.468;2023-01-26T20:24:04;99299.97;;;-1.34;72.31
49178;BME280;35016;55.674;37.468;2023-01-26T20:26:32;99304.47;;;-1.34;72.26
49178;BME280;35016;55.674;37.468;2023-01-26T20:29:00;99306.94;;;-1.33;72.29
49178;BME280;35016;55.674;37.468;2023-01-26T20:31:27;99299.78;;;-1.32;72.29
49178;BME280;35016;55.674;37.468;2023-01-26T20:33:55;99296.47;;;-1.34;72.28
49178;BME280;35016;55.674;37.468;2023-01-26T20:36:23;99307.31;;;-1.36;72.29
49178;BME280;35016;55.674;37.468;2023-01-26T20:38:50;99298.69;;;-1.38;72.27
49178;BME280;35016;55.674;37.468;2023-01-26T20:41:22;99300.09;;;-1.42;72.15
49178;BME280;35016;55.674;37.468;2023-01-26T20:43:50;99309.72;;;-1.41;72.34
49178;BME280;35016;55.674;37.468;2023-01-26T20:46:32;99303.38;;;-1.40;72.21
49178;BME280;35016;55.674;37.468;2023-01-26T20:49:00;99292.56;;;-1.38;72.45
49178;BME280;35016;55.674;37.468;2023-01-26T20:51:42;99297.88;;;-1.38;72.41
49178;BME280;35016;55.674;37.468;2023-01-26T20:54:13;99282.09;;;-1.40;72.39
49178;BME280;35016;55.674;37.468;2023-01-26T20:56:44;99293.38;;;-1.38;72.18
49178;BME280;35016;55.674;37.468;2023-01-26T20:59:12;99287.44;;;-1.40;72.29
49178;BME280;35016;55.674;37.468;2023-01-26T21:01:39;99286.22;;;-1.37;72.25
49178;BME280;35016;55.674;37.468;2023-01-26T21:04:06;99287.88;;;-1.36;72.35
49178;BME280;35016;55.674;37.468;2023-01-26T21:06:33;99287.03;;;-1.37;72.43
49178;BME280;35016;55.674;37.468;2023-01-26T21:09:02;99293.00;;;-1.35;72.35
49178;BME280;35016;55.674;37.468;2023-01-26T21:11:30;99285.22;;;-1.36;72.11
49178;BME280;35016;55.674;37.468;2023-01-26T21:13:58;99288.06;;;-1.38;72.24
49178;BME280;35016;55.674;37.468;2023-01-26T21:16:29;99286.22;;;-1.37;72.22
49178;BME280;35016;55.674;37.468;2023-01-26T21:18:57;99286.66;;;-1.34;72.32
49178;BME280;35016;55.674;37.468;2023-01-26T21:21:24;99290.16;;;-1.33;72.40
49178;BME280;35016;55.674;37.468;2023-01-26T21:23:51;99298.94;;;-1.33;72.21
49178;BME280;35016;55.674;37.468;2023-01-26T21:26:20;99291.16;;;-1.34;72.34
49178;BME280;35016;55.674;37.468;2023-01-26T21:28:51;99285.03;;;-1.35;72.29
49178;BME280;35016;55.674;37.468;2023-01-26T21:31:18;99279.91;;;-1.36;72.12
49178;BME280;35016;55.674;37.468;2023-01-26T21:33:50;99280.72;;;-1.36;72.44
49178;BME280;35016;55.674;37.468;2023-01-26T21:36:22;99284.75;;;-1.40;72.34
49178;BME280;35016;55.674;37.468;2023-01-26T21:38:50;99282.28;;;-1.41;72.30
49178;BME280;35016;55.674;37.468;2023-01-26T21:41:29;99292.47;;;-1.45;72.49
49178;BME280;35016;55.674;37.468;2023-01-26T21:44:19;99293.84;;;-1.49;72.34
49178;BME280;35016;55.674;37.468;2023-01-26T21:46:46;99296.50;;;-1.49;72.45
49178;BME280;35016;55.674;37.468;2023-01-26T21:56:15;99291.19;;;-1.49;72.45
49178;BME280;35016;55.674;37.468;2023-01-26T21:58:45;99287.69;;;-1.49;72.32
49178;BME280;35016;55.674;37.468;2023-01-26T22:01:28;99294.66;;;-1.48;72.27
49178;BME280;35016;55.674;37.468;2023-01-26T22:04:00;99297.50;;;-1.50;72.61
49178;BME280;35016;55.674;37.468;2023-01-26T22:06:28;99299.34;;;-1.50;72.30
49178;BME280;35016;55.674;37.468;2023-01-26T22:08:55;99304.03;;;-1.52;72.35
49178;BME280;35016;55.674;37.468;2023-01-26T22:11:24;99297.25;;;-1.55;72.29
49178;BME280;35016;55.674;37.468;2023-01-26T22:13:51;99294.78;;;-1.57;72.41
49178;BME280;35016;55.674;37.468;2023-01-26T22:16:18;99294.97;;;-1.58;72.34
49178;BME280;35016;55.674;37.468;2023-01-26T22:18:46;99305.78;;;-1.60;72.45
49178;BME280;35016;55.674;37.468;2023-01-26T22:21:14;99299.84;;;-1.62;72.30
49178;BME280;35016;55.674;37.468;2023-01-26T22:23:41;99295.09;;;-1.66;72.32
49178;BME280;35016;55.674;37.468;2023-01-26T22:26:16;99300.97;;;-1.71;72.23
49178;BME280;35016;55.674;37.468;2023-01-26T22:28:43;99295.84;;;-1.72;72.49
49178;BME280;35016;55.674;37.468;2023-01-26T22:31:16;99299.13;;;-1.70;72.34
49178;BME280;35016;55.674;37.468;2023-01-26T22:33:43;99286.47;;;-1.68;72.37
49178;BME280;35016;55.674;37.468;2023-01-26T22:36:11;99289.59;;;-1.65;72.53
49178;BME280;35016;55.674;37.468;2023-01-26T22:38:39;99285.91;;;-1.64;72.55
49178;BME280;35016;55.674;37.468;2023-01-26T22:41:11;99285.91;;;-1.64;72.39
49178;BME280;35016;55.674;37.468;2023-01-26T22:43:39;99295.09;;;-1.66;72.43
49178;BME280;35016;55.674;37.468;2023-01-26T22:46:08;99284.66;;;-1.68;72.39
49178;BME280;35016;55.674;37.468;2023-01-26T22:48:35;99300.78;;;-1.69;72.41
49178;BME280;35016;55.674;37.468;2023-01-26T22:51:09;99288.50;;;-1.70;72.46
49178;BME280;35016;55.674;37.468;2023-01-26T22:53:37;99295.00;;;-1.73;72.36
49178;BME280;35016;55.674;37.468;2023-01-26T22:56:04;99288.56;;;-1.78;72.31
49178;BME280;35016;55.674;37.468;2023-01-26T22:58:32;99296.09;;;-1.82;72.28
49178;BME280;35016;55.674;37.468;2023-01-26T23:01:12;99294.44;;;-1.83;72.28
49178;BME280;35016;55.674;37.468;2023-01-26T23:03:40;99281.16;;;-1.83;72.50
49178;BME280;35016;55.674;37.468;2023-01-26T23:06:10;99283.91;;;-1.76;72.40
49178;BME280;35016;55.674;37.468;2023-01-26T23:08:38;99283.91;;;-1.76;72.50
49178;BME280;35016;55.674;37.468;2023-01-26T23:13:32;99295.16;;;-1.74;72.42
49178;BME280;35016;55.674;37.468;2023-01-26T23:16:00;99304.63;;;-1.72;72.44
49178;BME280;35016;55.674;37.468;2023-01-26T23:18:27;99301.22;;;-1.66;72.43
49178;BME280;35016;55.674;37.468;2023-01-26T23:20:54;99304.16;;;-1.61;72.35
49178;BME280;35016;55.674;37.468;2023-01-26T23:23:21;99291.03;;;-1.62;72.21
49178;BME280;35016;55.674;37.468;2023-01-26T23:25:48;99295.34;;;-1.61;72.17
49178;BME280;35016;55.674;37.468;2023-01-26T23:28:25;99293.44;;;-1.67;72.33
49178;BME280;35016;55.674;37.468;2023-01-26T23:30:53;99298.50;;;-1.72;72.37
49178;BME280;35016;55.674;37.468;2023-01-26T23:33:21;99293.72;;;-1.77;72.58
49178;BME280;35016;55.674;37.468;2023-01-26T23:35:48;99297.09;;;-1.83;72.28
49178;BME280;35016;55.674;37.468;2023-01-26T23:38:15;99298.13;;;-1.84;72.40
49178;BME280;35016;55.674;37.468;2023-01-26T23:40:43;99297.09;;;-1.83;72.51
49178;BME280;35016;55.674;37.468;2023-01-26T23:43:16;99293.19;;;-1.87;72.54
49178;BME280;35016;55.674;37.468;2023-01-26T23:45:45;99299.69;;;-1.90;72.49
49178;BME280;35016;55.674;37.468;2023-01-26T23:48:12;99284.13;;;-1.93;72.55
49178;BME280;35016;55.674;37.468;2023-01-26T23:50:39;99290.25;;;-1.92;72.58
49178;BME280;35016;55.674;37.468;2023-01-26T23:53:06;99290.44;;;-1.94;72.67
49178;BME280;35016;55.674;37.468;2023-01-26T23:55:37;99283.47;;;-1.95;72.42
49178;BME280;35016;55.674;37.468;2023-01-26T23:58:04;99277.53;;;-1.97;72.46
